Stolt Spray — ZCSQ9 — position and weather

sailwx.info

Track history (hours):
 
Tides and Currents Weather Stations Pressure Air Temp Water Temp Dewpoint Dewpoint Depression Visibility Wind Speed Wind Dir Waves Ship Positions

Stolt Spray

Last reported at 2015-Jan-31 05:33 UTC. Time now 2015-Jan-31 07:10 UTC.
Position N 34°24' E 135°02'.

Length 163 m; draft 9.9 m.

Type: Ship (hazmat cat A). MMSI: 319591000.

Date/timePositionNaut miles runAvg speedWind from/ knotsBaromVisibWave heightAir tempDewpointWater temp
2015-Jan-31 05:33N 34°24' E 135°02'1515.1
2015-Jan-31 04:33N 34°35' E 135°15'5 4.7
2015-Jan-31 03:30N 34°39' E 135°18'0 0.0
2015-Jan-31 02:18N 34°39' E 135°18'0 0.1
2015-Jan-31 01:30N 34°39' E 135°18'0 0.1
2015-Jan-31 00:30N 34°39' E 135°18'0 0.0
2015-Jan-30 23:24N 34°39' E 135°18'0 0.0
2015-Jan-30 22:30N 34°39' E 135°18'0 0.0
2015-Jan-30 21:30N 34°39' E 135°18'0 0.0
2015-Jan-30 20:30N 34°39' E 135°18'0 0.0
2015-Jan-30 19:30N 34°39' E 135°18'0 0.0
2015-Jan-30 18:24N 34°39' E 135°18'0 0.0
2015-Jan-30 17:30N 34°39' E 135°18'0 0.1
2015-Jan-30 16:30N 34°39' E 135°18'0 0.1
2015-Jan-30 15:30N 34°39' E 135°18'0 0.0
2015-Jan-30 14:24N 34°39' E 135°18'0 0.0
2015-Jan-30 13:30N 34°39' E 135°18'0 0.1
2015-Jan-30 12:30N 34°39' E 135°18'0 0.0
2015-Jan-30 11:30N 34°39' E 135°18'0 0.0
2015-Jan-30 10:30N 34°39' E 135°18'0 0.1
2015-Jan-30 09:33N 34°39' E 135°18'8 8.2
2015-Jan-30 08:33N 34°32' E 135°13'1514.3
2015-Jan-30 07:30N 34°20' E 135°02'1111.6
2015-Jan-30 06:33N 34°09' E 134°60'1111.6
2015-Jan-30 05:33N 33°57' E 134°60'23110.4
2015-Jan-29 07:23N 34°58' E 139°30'1214.7
2015-Jan-29 06:33N 35°05' E 139°41'1212.3
2015-Jan-29 05:33N 35°18' E 139°45'6 4.9
2015-Jan-29 04:25N 35°22' E 139°41'0 0.0
2015-Jan-29 02:25N 35°22' E 139°41'0 0.0
2015-Jan-28 20:32N 35°22' E 139°41'6 6.6
2015-Jan-28 19:33N 35°17' E 139°45'9 8.9
2015-Jan-28 18:33N 35°08' E 139°46'6 6.3
2015-Jan-28 17:33N 35°02' E 139°44'9 8.2
2015-Jan-28 16:28N 34°53' E 139°46'  
Track history (hours):
 
Tides and Currents Weather Stations Pressure Air Temp Water Temp Dewpoint Dewpoint Depression Visibility Wind Speed Wind Dir Waves Ship Positions

Stolt Spray

Last reported at 2015-Jan-31 05:33 UTC. Time now 2015-Jan-31 07:10 UTC.
Position N 34°24' E 135°02'.

Length 163 m; draft 9.9 m.

Type: Ship (hazmat cat A). MMSI: 319591000.

Date/timePositionNaut miles runAvg speedWind from/ knotsBaromVisibWave heightAir tempDewpointWater temp
2015-Jan-31 05:33N 34°24' E 135°02'1515.1
2015-Jan-31 04:33N 34°35' E 135°15'5 4.7
2015-Jan-31 03:30N 34°39' E 135°18'0 0.0
2015-Jan-31 02:18N 34°39' E 135°18'0 0.1
2015-Jan-31 01:30N 34°39' E 135°18'0 0.1
2015-Jan-31 00:30N 34°39' E 135°18'0 0.0
2015-Jan-30 23:24N 34°39' E 135°18'0 0.0
2015-Jan-30 22:30N 34°39' E 135°18'0 0.0
2015-Jan-30 21:30N 34°39' E 135°18'0 0.0
2015-Jan-30 20:30N 34°39' E 135°18'0 0.0
2015-Jan-30 19:30N 34°39' E 135°18'0 0.0
2015-Jan-30 18:24N 34°39' E 135°18'0 0.0
2015-Jan-30 17:30N 34°39' E 135°18'0 0.1
2015-Jan-30 16:30N 34°39' E 135°18'0 0.1
2015-Jan-30 15:30N 34°39' E 135°18'0 0.0
2015-Jan-30 14:24N 34°39' E 135°18'0 0.0
2015-Jan-30 13:30N 34°39' E 135°18'0 0.1
2015-Jan-30 12:30N 34°39' E 135°18'0 0.0
2015-Jan-30 11:30N 34°39' E 135°18'0 0.0
2015-Jan-30 10:30N 34°39' E 135°18'0 0.1
2015-Jan-30 09:33N 34°39' E 135°18'8 8.2
2015-Jan-30 08:33N 34°32' E 135°13'1514.3
2015-Jan-30 07:30N 34°20' E 135°02'1111.6
2015-Jan-30 06:33N 34°09' E 134°60'1111.6
2015-Jan-30 05:33N 33°57' E 134°60'23110.4
2015-Jan-29 07:23N 34°58' E 139°30'1214.7
2015-Jan-29 06:33N 35°05' E 139°41'1212.3
2015-Jan-29 05:33N 35°18' E 139°45'6 4.9
2015-Jan-29 04:25N 35°22' E 139°41'0 0.0
2015-Jan-29 02:25N 35°22' E 139°41'0 0.0
2015-Jan-28 20:32N 35°22' E 139°41'6 6.6
2015-Jan-28 19:33N 35°17' E 139°45'9 8.9
2015-Jan-28 18:33N 35°08' E 139°46'6 6.3
2015-Jan-28 17:33N 35°02' E 139°44'9 8.2
2015-Jan-28 16:28N 34°53' E 139°46'  

Dump ship's entire track history